^^
Meteo Knjazevac Station Historical Data
Daily Summary for February 26, 2021 Units:  English    Metric   Both
Daily Weekly Monthly Yearly Custom
  High: Low: Average:
Temperature: 73.7 °F 64.2 °F 68 °F
Dew Point: 66.4 °F 61.5 °F 63.4 °F
Humidity: 93% 78% 86%
Wind Speed: 2mph 0mph 1mph
Wind Gust: 6mph - -
Wind- - West
Pressure: 30.04 in 30.01 in -
Precipitation: 0.00 in    
Historical Graphs
 
 
Tabular Data for February 26, 2021
Time Temperature Dew Point Pressure Wind Wind Speed Wind Gust Humidity Rainfall Rate (Hourly) solar Conditions
00:00 73.7 °F 66.4 °F 30.01 in West 1 mph 4 mph 78% 0.00 in 0 W/m2
00:10 73.4 °F 66.1 °F 30.02 in WNW 2 mph 2 mph 78% 0.00 in 0 W/m2
00:20 73.2 °F 65.9 °F 30.02 in Calm   3 mph 78% 0.00 in 0 W/m2
00:30 72.9 °F 66 °F 30.01 in WSW 1 mph 2 mph 79% 0.00 in 0 W/m2
00:40 72.5 °F 65.6 °F 30.02 in Calm   2 mph 79% 0.00 in 0 W/m2
00:50 72.1 °F 65.6 °F 30.02 in WSW 1 mph 3 mph 80% 0.00 in 0 W/m2
01:00 71.8 °F 65.6 °F 30.01 in NNW 1 mph 2 mph 81% 0.00 in 0 W/m2
01:10 71.3 °F 64.8 °F 30.01 in Calm   2 mph 80% 0.00 in 0 W/m2
01:20 71 °F 64.5 °F 30.01 in Calm   2 mph 80% 0.00 in 0 W/m2
01:30 70.7 °F 64.6 °F 30.01 in NE 1 mph 2 mph 81% 0.00 in 0 W/m2
01:40 70.5 °F 64.4 °F 30.01 in SSW 1 mph 3 mph 81% 0.00 in 0 W/m2
01:50 70.2 °F 64.1 °F 30.01 in Calm   2 mph 81% 0.00 in 0 W/m2
02:00 69.9 °F 64.5 °F 30.02 in Calm   2 mph 83% 0.00 in 0 W/m2
02:10 69.3 °F 64.2 °F 30.02 in WNW 2 mph 3 mph 84% 0.00 in 0 W/m2
02:20 68.9 °F 63.9 °F 30.03 in WSW 1 mph 3 mph 84% 0.00 in 0 W/m2
02:30 68.2 °F 63.6 °F 30.03 in SW 2 mph 3 mph 85% 0.00 in 0 W/m2
02:40 67.6 °F 63.3 °F 30.03 in WSW 2 mph 5 mph 86% 0.00 in 0 W/m2
02:50 67.3 °F 62.9 °F 30.03 in West 2 mph 5 mph 86% 0.00 in 0 W/m2
03:00 67.1 °F 62.8 °F 30.03 in West 2 mph 5 mph 86% 0.00 in 0 W/m2
03:10 66.9 °F 62.6 °F 30.03 in WSW 1 mph 3 mph 86% 0.00 in 0 W/m2
03:20 66.9 °F 62.6 °F 30.03 in West 1 mph 3 mph 86% 0.00 in 0 W/m2
03:30 66.9 °F 62.6 °F 30.03 in Calm   2 mph 86% 0.00 in 0 W/m2
03:40 66.8 °F 63.1 °F 30.03 in Calm     88% 0.00 in 0 W/m2
03:50 66.7 °F 63.1 °F 30.02 in Calm   2 mph 88% 0.00 in 0 W/m2
04:00 66.6 °F 62.9 °F 30.02 in NNW 1 mph 3 mph 88% 0.00 in 0 W/m2
04:10 66.4 °F 62.7 °F 30.03 in NW 1 mph 3 mph 88% 0.00 in 0 W/m2
04:20 66 °F 62.7 °F 30.03 in Calm   2 mph 89% 0.00 in 0 W/m2
04:30 65.8 °F 62.5 °F 30.03 in WNW 2 mph 5 mph 89% 0.00 in 0 W/m2
04:40 65.2 °F 61.9 °F 30.03 in WSW 2 mph 4 mph 89% 0.00 in 0 W/m2
04:50 64.8 °F 61.8 °F 30.03 in WSW 1 mph 4 mph 90% 0.00 in 0 W/m2
05:00 64.6 °F 61.6 °F 30.03 in WNW 1 mph 4 mph 90% 0.00 in 5 W/m2
05:10 64.4 °F 61.7 °F 30.03 in Calm   5 mph 91% 0.00 in 12 W/m2
05:20 64.4 °F 61.7 °F 30.03 in WNW 2 mph 4 mph 91% 0.00 in 22 W/m2
05:30 64.4 °F 61.7 °F 30.03 in WNW 1 mph 3 mph 91% 0.00 in 33 W/m2
05:40 64.2 °F 61.5 °F 30.03 in WNW 2 mph 6 mph 91% 0.00 in 43 W/m2
05:50 64.2 °F 61.5 °F 30.03 in WSW 1 mph 5 mph 91% 0.00 in 64 W/m2
06:00 64.2 °F 62.2 °F 30.03 in West 1 mph 3 mph 93% 0.00 in 88 W/m2
06:10 64.5 °F 62.4 °F 30.03 in Calm   2 mph 93% 0.00 in 110 W/m2
06:20 64.8 °F 62.7 °F 30.04 in WNW 2 mph 3 mph 93% 0.00 in 132 W/m2
Knjazevac, Serbia
Compliments of Weather Underground - 2 mb